Latest Coastal Weather Observations for Cape Naturaliste

IDW60701

Issued at 3:45 pm WST Wednesday 3 September 2014 (issued every 10 minutes, with the page automatically refreshed every 10 minutes)

About coastal observations | Map of coastal stations | Coastal observations for WA | Marine services | Other Formats
Station Details ID: 009519 Name: CAPE NATURALISTE Lat: -33.54 Lon: 115.02 Height: 109.0 m
Data from the previous 72 hours. | See also: Recent months at Cape Naturaliste
Date/Time
WST
Temp

°C
Wind Pressure Rain
since 9am
mm
Weather Cloud Vis
km
Sea
Height
m
Swell
Dir
 
Speed
knots
Gust
knots
hPa Trend Height
m
Period
s
Dir
03/03:30pm 18.2 E 10 13 1021.4 - 0.0 - - - - - - -
03/03:00pm 18.7 SSE 9 13 1021.3 - 0.0 - - - - - - -
03/02:30pm 18.2 SSE 11 15 1021.3 - 0.0 - - - - - - -
03/02:00pm 18.4 SE 10 14 1021.5 - 0.0 - - - - - - -
03/01:30pm 17.9 SSE 10 14 1021.7 - 0.0 - - - - - - -
03/01:00pm 17.8 ESE 9 13 1022.7 - 0.0 - - - - - - -
03/12:30pm 17.2 E 10 15 1022.8 - 0.0 - - - - - - -
03/12:00pm 16.4 NE 9 11 1023.4 - 0.0 - - - - - - -
03/11:30am 15.3 E 9 11 1023.6 - 0.0 - - - - - - -
03/11:00am 15.5 E 9 13 1023.6 - 0.0 - - - - - - -
03/10:30am 15.8 E 10 16 1023.5 - 0.0 - - - - - - -
03/10:00am 14.8 SE 9 13 1023.8 - 0.0 - - - - - - -
03/09:30am 14.7 SE 8 12 1023.8 - 0.0 - - - - - - -
03/09:00am 13.6 SSE 9 13 1023.9 - 0.0 - - - - - - -
03/08:30am 12.7 SSE 7 9 1023.8 - 0.0 - - - - - - -
03/08:00am 12.0 SSE 8 12 1023.6 - 0.0 - - - - - - -
03/07:30am 10.0 S 7 9 1023.0 - 0.0 - - - - - - -
03/07:00am 9.0 SSE 7 9 1022.6 - 0.0 - - - - - - -
03/06:30am 9.4 SSE 10 12 1022.3 - 0.0 - - - - - - -
03/06:00am 9.8 SSE 11 14 1021.8 - 0.0 - - - - - - -
03/05:30am 9.5 S 10 12 1021.6 - 0.0 - - - - - - -
03/05:00am 9.8 S 11 14 1021.4 - 0.0 - - - - - - -
03/04:30am 10.3 S 12 15 1020.8 - 0.0 - - - - - - -
03/04:00am 10.4 S 13 17 1020.4 - 0.0 - - - - - - -
03/03:30am 10.5 SSE 11 13 1020.4 - 0.0 - - - - - - -
03/03:00am 11.0 S 12 16 1020.2 - 0.0 - - - - - - -
03/02:30am 11.5 S 11 14 1020.6 - 0.0 - - - - - - -
03/02:00am 11.3 S 10 13 1020.8 - 0.0 - - - - - - -
03/01:30am 11.6 S 9 12 1020.8 - 0.0 - - - - - - -
03/01:00am 11.4 S 10 12 1020.7 - 0.0 - - - - - - -
03/12:30am 11.8 S 10 12 1020.4 - 0.0 - - - - - - -
03/12:00am 12.3 S 11 14 1020.1 - 0.0 - - - - - - -
 
Date/Time
WST
Temp

°C
Wind Pressure Rain
since 9am
mm
Weather Cloud Vis
km
Sea
Height
m
Swell
Dir
 
Speed
knots
Gust
knots
hPa Trend Height
m
Period
s
Dir
02/11:30pm 12.4 S 13 16 1020.1 - 0.0 - - - - - - -
02/11:00pm 12.7 S 13 16 1020.4 - 0.0 - - - - - - -
02/10:30pm 13.1 S 14 19 1020.0 - 0.0 - - - - - - -
02/10:00pm 13.3 S 12 15 1020.1 - 0.0 - - - - - - -
02/09:30pm 13.2 S 10 13 1019.8 - 0.0 - - - - - - -
02/09:00pm 13.7 S 12 15 1019.7 - 0.0 - - - - - - -
02/08:30pm 14.2 S 12 16 1019.6 - 0.0 - - - - - - -
02/08:00pm 14.5 SSW 15 20 1019.3 - 0.0 - - - - - - -
02/07:30pm 14.9 SSW 17 23 1019.1 - 0.0 - - - - - - -
02/07:00pm 15.2 SSW 14 19 1018.6 - 0.0 - - - - - - -
02/06:30pm 15.6 SW 12 15 1017.8 - 0.0 - - - - - - -
02/06:00pm 15.9 SW 13 16 1017.9 - 0.0 - - - - - - -
02/05:30pm 16.1 SW 12 15 1017.2 - 0.0 - - - - - - -
02/05:00pm 16.6 SW 12 15 1016.6 - 0.0 - - - - - - -
02/04:30pm 16.7 WSW 14 17 1016.3 - 0.0 - - - - - - -
02/04:00pm 17.1 SW 9 13 1016.1 - 0.0 - - - - - - -
02/03:30pm 17.7 WSW 10 14 1015.9 - 0.0 - - - - - - -
02/03:00pm 18.7 WSW 11 14 1015.7 - 0.0 - - - - - - -
02/02:30pm 19.8 WSW 13 15 1015.6 - 0.0 - - - - - - -
02/02:00pm 19.7 W 10 13 1015.7 - 0.0 - - - - - - -
02/01:30pm 18.9 W 8 11 1015.8 - 0.0 - - - - - - -
02/01:00pm 17.7 NNW 5 8 1015.8 - 0.0 - - - - - - -
02/12:30pm 17.5 WNW 5 7 1015.6 - 0.0 - - - - - - -
02/12:00pm 17.9 NNW 4 6 1015.8 - 0.0 - - - - - - -
02/11:30am 17.0 NNW 5 6 1016.6 - 0.0 - - - - - - -
02/11:00am 16.3 NNE 5 7 1016.8 - 0.0 - - - - - - -
02/10:30am 16.6 NE 6 8 1016.6 - 0.0 - - - - - - -
02/10:00am 16.7 NE 5 7 1016.8 - 0.0 - - - - - - -
02/09:30am 16.2 NNE 7 9 1016.8 - 0.0 - - - - - - -
02/09:00am 15.2 NNE 9 11 1016.9 - 0.0 - - - - - - -
02/08:30am 14.3 NE 7 11 1016.8 - 0.0 - - - - - - -
02/08:00am 13.0 E 9 10 1016.4 - 0.0 - - - - - - -
02/07:30am 13.3 E 9 11 1016.3 - 0.0 - - - - - - -
02/07:00am 12.8 E 9 10 1016.6 - 0.0 - - - - - - -
02/06:30am 12.3 E 8 11 1016.4 - 0.0 - - - - - - -
02/06:00am 11.4 ESE 9 10 1016.5 - 0.0 - - - - - - -
02/05:30am 11.1 SE 10 11 1016.2 - 0.0 - - - - - - -
02/05:00am 11.0 ESE 11 13 1015.9 - 0.0 - - - - - - -
02/04:30am 11.2 SE 10 12 1016.3 - 0.0 - - - - - - -
02/04:00am 11.2 SE 9 10 1016.7 - 0.0 - - - - - - -
02/03:30am 11.6 ESE 9 11 1017.1 - 0.0 - - - - - - -
02/03:00am 11.4 ESE 9 11 1017.6 - 0.0 - - - - - - -
02/02:30am 11.7 ESE 9 11 1018.0 - 0.0 - - - - - - -
02/02:00am 11.6 ESE 9 11 1018.4 - 0.0 - - - - - - -
02/01:30am 11.5 ESE 10 11 1018.6 - 0.0 - - - - - - -
02/01:00am 11.2 ESE 11 12 1018.9 - 0.0 - - - - - - -
02/12:30am 11.3 ESE 11 13 1019.0 - 0.0 - - - - - - -
02/12:00am 11.2 ESE 10 12 1019.5 - 0.0 - - - - - - -
 
Date/Time
WST
Temp

°C
Wind Pressure Rain
since 9am
mm
Weather Cloud Vis
km
Sea
Height
m
Swell
Dir
 
Speed
knots
Gust
knots
hPa Trend Height
m
Period
s
Dir
01/11:30pm 11.2 ESE 10 11 1019.5 - 0.0 - - - - - - -
01/11:00pm 11.3 ESE 9 11 1019.6 - 0.0 - - - - - - -
01/10:30pm 11.1 SE 8 9 1020.3 - 0.0 - - - - - - -
01/10:00pm 11.1 SE 9 11 1020.1 - 0.0 - - - - - - -
01/09:30pm 11.5 ESE 8 10 1020.7 - 0.0 - - - - - - -
01/09:00pm 11.3 SE 7 9 1021.3 - 0.0 - - - - - - -
01/08:30pm 11.1 SE 7 8 1021.0 - 0.0 - - - - - - -
01/08:00pm 10.7 SE 7 9 1021.0 - 0.0 - - - - - - -
01/07:30pm 10.8 SE 9 10 1021.0 - 0.0 - - - - - - -
01/07:00pm 11.1 ESE 8 9 1020.6 - 0.0 - - - - - - -
01/06:30pm 11.1 E 7 8 1021.2 - 0.0 - - - - - - -
01/06:00pm 11.0 ESE 8 9 1021.2 - 0.0 - - - - - - -
01/05:30pm 12.4 E 8 10 1020.9 - 0.0 - - - - - - -
01/05:00pm 12.9 E 9 11 1021.0 - 0.0 - - - - - - -
01/04:30pm 14.9 ENE 10 12 1020.8 - 0.0 - - - - - - -
01/04:00pm 14.1 ENE 10 14 1021.1 - 0.0 - - - - - - -
01/03:30pm 15.4 E 9 12 1021.0 - 0.0 - - - - - - -
01/03:00pm 16.0 ENE 10 13 1021.0 - 0.0 - - - - - - -
01/02:30pm 15.5 ENE 11 14 1021.1 - 0.0 - - - - - - -
01/02:00pm 15.9 NE 10 13 1021.5 - 0.0 - - - - - - -
01/01:30pm 15.6 ENE 11 16 1021.4 - 0.0 - - - - - - -
01/01:00pm 14.8 ENE 11 14 1022.0 - 0.0 - - - - - - -
01/12:30pm 15.1 NE 11 15 1022.7 - 0.0 - - - - - - -
01/12:00pm 15.8 NE 11 15 1023.3 - 0.0 - - - - - - -
01/11:30am 15.8 NE 12 16 1023.7 - 0.0 - - - - - - -
01/11:00am 15.5 ENE 13 18 1023.9 - 0.0 - - - - - - -
01/10:30am 14.2 ENE 13 17 1023.9 - 0.0 - - - - - - -
01/10:00am 14.1 ENE 14 17 1024.0 - 0.0 - - - - - - -
01/09:30am 13.3 ENE 14 17 1024.0 - 0.0 - - - - - - -
01/09:00am 12.9 ENE 15 19 1023.7 - 0.0 - - - - - - -
01/08:30am 12.5 ENE 12 16 1023.9 - 0.0 - - - - - - -
01/08:00am 10.6 E 10 14 1023.8 - 0.0 - - - - - - -
01/07:30am 8.5 ESE 10 11 1023.7 - 0.0 - - - - - - -
01/07:00am 7.4 ESE 9 11 1023.5 - 0.0 - - - - - - -
01/06:30am 7.2 ESE 10 12 1023.2 - 0.0 - - - - - - -
01/06:00am 7.2 SE 10 12 1023.1 - 0.0 - - - - - - -
01/05:30am 7.1 ESE 9 11 1022.9 - 0.0 - - - - - - -
01/05:00am 7.1 ESE 10 11 1022.6 - 0.0 - - - - - - -
01/04:30am 7.0 ESE 10 12 1022.3 - 0.0 - - - - - - -
01/04:00am 6.8 ESE 10 11 1022.4 - 0.0 - - - - - - -
01/03:30am 6.9 SE 10 11 1022.3 - 0.0 - - - - - - -
01/03:00am 7.1 SE 9 11 1022.3 - 0.0 - - - - - - -
01/02:30am 7.3 SE 9 11 1022.4 - 0.0 - - - - - - -
01/02:00am 7.4 SE 9 11 1022.4 - 0.0 - - - - - - -
01/01:30am 7.6 ESE 9 10 1022.5 - 0.0 - - - - - - -
01/01:00am 7.6 SE 8 10 1022.5 - 0.0 - - - - - - -
01/12:30am 7.7 SE 8 9 1022.5 - 0.0 - - - - - - -
01/12:00am 7.6 SE 9 11 1022.4 - 0.0 - - - - - - -
 
Date/Time
WST
Temp

°C
Wind Pressure Rain
since 9am
mm
Weather Cloud Vis
km
Sea
Height
m
Swell
Dir
 
Speed
knots
Gust
knots
hPa Trend Height
m
Period
s
Dir
31/11:30pm 7.8 SE 9 10 1022.5 - 0.0 - - - - - - -
31/11:00pm 8.0 SE 9 10 1022.8 - 0.0 - - - - - - -
31/10:30pm 8.2 SE 9 11 1023.0 - 0.0 - - - - - - -
31/10:00pm 8.5 SE 9 11 1023.2 - 0.0 - - - - - - -
31/09:30pm 8.9 SSE 9 11 1023.1 - 0.0 - - - - - - -
31/09:00pm 9.2 SSE 10 12 1022.6 - 0.0 - - - - - - -
31/08:30pm 9.4 SSE 10 14 1022.3 - 0.0 - - - - - - -
31/08:00pm 9.8 SSE 11 14 1022.0 - 0.0 - - - - - - -
31/07:30pm 9.6 SSE 10 11 1021.7 - 0.0 - - - - - - -
31/07:00pm 9.8 SSE 9 11 1021.6 - 0.0 - - - - - - -
31/06:30pm 10.6 S 9 12 1021.2 - 0.0 - - - - - - -
31/06:00pm 11.6 S 12 16 1020.9 - 0.0 - - - - - - -
31/05:30pm 12.8 SSW 12 16 1020.8 - 0.0 - - - - - - -
31/05:00pm 13.9 SSW 11 16 1020.8 - 0.0 - - - - - - -
31/04:30pm 14.7 SSW 11 15 1020.2 - 0.0 - - - - - - -
31/04:00pm 15.1 SSW 11 15 1019.8 - 0.0 - - - - - - -

Other Formats:

Comma delimited format used in spreadsheet applications
http://www.bom.gov.au/fwo/IDW60701/IDW60701.94600.axf

JavaScript Object Notation format (JSON) in row-major order
http://www.bom.gov.au/fwo/IDW60701/IDW60701.94600.json